KEDE/EDE METAR and TAF weather

Enter ICAO airport designator
Station Type Date Time Source
KEDE METAR 2019/08/19 08:20 UTC NOAA

KEDE 190820Z AUTO 22005KT 10SM SCT047 27/25 A3001 RMK AO2 T02690253


Station Type Date Time Source
KEDE Decoded METAR 2019/08/19 08:20 UTC NOAA

Station name not available
Aug 19, 2019 - 04:20 AM EDT / 2019.08.19 0820 UTC
Wind: from the SW (220 degrees) at 6 MPH (5 KT):0
Visibility: 10 mile(s):0
Sky conditions: partly cloudy
Temperature: 80.4 F (26.9 C)
Dew Point: 77.5 F (25.3 C)
Relative Humidity: 90%
Pressure (altimeter): 30.01 in. Hg (1016 hPa)
ob: KEDE 190820Z AUTO 22005KT 10SM SCT047 27/25 A3001 RMK AO2 T02690253
cycle: 8

Station Type Date Time Source
KEDE TAF UTC NOAA

Error!

Example: see airport list